Time;durP1;ratioP1;P1;durP2;ratioP2;P2;SDS_P1;SDS_P2;PMS_P1;PMS_P2;Temp;Humidity;BMP_temperature;BMP_pressure;BME280_temperature;BME280_humidity;BME280_pressure;Samples;Min_cycle;Max_cycle;Signal;HPM_P1;HPM_P2
2024/04/13 00:02:06;;;;;;;2.70;0.40;;;16.00;91.20;;;;;;5513649;26;20002;-69
2024/04/13 00:04:32;;;;;;;3.10;0.50;;;15.90;91.30;;;;;;5508446;26;20490;-69
2024/04/13 00:06:57;;;;;;;4.43;0.40;;;15.80;91.40;;;;;;5508043;25;19990;-69
2024/04/13 00:09:23;;;;;;;5.07;0.45;;;15.80;91.40;;;;;;5477656;25;20061;-69
2024/04/13 00:11:49;;;;;;;2.25;0.50;;;15.80;91.40;;;;;;5511693;26;20452;-70
2024/04/13 00:14:14;;;;;;;2.67;0.30;;;15.80;91.40;;;;;;5514122;25;20441;-67
2024/04/13 00:16:40;;;;;;;2.95;0.50;;;15.80;91.70;;;;;;5496383;25;19998;-68
2024/04/13 00:19:05;;;;;;;1.58;0.40;;;15.70;91.50;;;;;;5497063;26;20008;-69
2024/04/13 00:21:31;;;;;;;2.78;0.55;;;15.70;91.40;;;;;;5466732;26;20005;-68
2024/04/13 00:23:58;;;;;;;3.10;0.50;;;15.80;91.60;;;;;;5496273;26;19990;-70
2024/04/13 00:26:24;;;;;;;2.63;0.50;;;15.70;91.50;;;;;;5511390;26;20012;-70
2024/04/13 00:28:52;;;;;;;3.85;0.73;;;15.70;91.60;;;;;;5447820;26;20074;-69
2024/04/13 00:31:20;;;;;;;9.02;0.80;;;15.70;91.60;;;;;;5448680;26;20022;-70
2024/04/13 00:33:47;;;;;;;2.25;0.40;;;15.70;91.60;;;;;;5447993;26;20013;-70
2024/04/13 00:36:12;;;;;;;2.80;0.43;;;15.60;91.60;;;;;;5482969;26;20067;-70
2024/04/13 00:38:38;;;;;;;3.08;0.60;;;15.60;91.70;;;;;;5503128;25;20009;-70
2024/04/13 00:41:05;;;;;;;8.82;0.68;;;15.60;91.70;;;;;;5479094;26;20483;-69
2024/04/13 00:43:30;;;;;;;2.03;0.45;;;15.50;91.70;;;;;;5478203;26;20512;-69
2024/04/13 00:45:56;;;;;;;2.85;0.50;;;15.50;91.80;;;;;;5512093;25;19998;-69
2024/04/13 00:48:30;;;;;;;5.50;0.40;;;15.40;92.00;;;;;;5509451;25;20472;-68
2024/04/13 00:51:04;;;;;;;2.75;0.50;;;15.40;92.10;;;;;;5459974;26;19998;-70
2024/04/13 00:53:38;;;;;;;3.08;0.50;;;15.40;92.10;;;;;;5482516;26;20017;-70
2024/04/13 00:56:06;;;;;;;2.47;0.45;;;15.30;92.10;;;;;;5471931;26;20141;-70
2024/04/13 00:58:36;;;;;;;3.45;0.50;;;15.30;92.20;;;;;;5478729;26;20372;-69
2024/04/13 01:01:03;;;;;;;3.88;0.60;;;15.30;92.40;;;;;;5478994;26;20087;-70
2024/04/13 01:03:29;;;;;;;8.02;0.70;;;15.30;92.40;;;;;;5483057;26;20065;-69
2024/04/13 01:06:01;;;;;;;1.80;0.30;;;15.40;92.40;;;;;;5503764;26;20429;-69
2024/04/13 01:08:34;;;;;;;2.50;0.50;;;15.40;92.20;;;;;;5492452;26;20009;-69
2024/04/13 01:11:00;;;;;;;3.38;0.40;;;15.30;92.20;;;;;;5505342;26;20006;-69
2024/04/13 01:13:26;;;;;;;2.15;0.50;;;15.40;92.30;;;;;;5493021;25;20038;-69
2024/04/13 01:15:52;;;;;;;2.60;0.40;;;15.30;92.20;;;;;;5497437;26;20429;-69
2024/04/13 01:18:18;;;;;;;3.38;0.43;;;15.30;92.20;;;;;;5510742;26;20001;-69
2024/04/13 01:20:43;;;;;;;5.03;0.60;;;15.30;92.30;;;;;;5455259;26;20006;-69
2024/04/13 01:23:11;;;;;;;2.42;0.50;;;15.30;92.50;;;;;;5512014;25;20033;-69
2024/04/13 01:25:41;;;;;;;4.10;0.60;;;15.20;92.40;;;;;;5497676;26;19998;-69
2024/04/13 01:28:07;;;;;;;2.28;0.50;;;15.20;92.40;;;;;;5482239;26;19997;-69
2024/04/13 01:30:34;;;;;;;5.55;0.52;;;15.20;92.30;;;;;;5492350;26;20006;-68
2024/04/13 01:33:00;;;;;;;2.58;0.50;;;15.10;92.40;;;;;;5491583;26;20007;-69
2024/04/13 01:35:26;;;;;;;2.75;0.43;;;15.10;92.60;;;;;;5485536;26;20309;-69
2024/04/13 01:37:52;;;;;;;4.20;0.60;;;15.10;92.40;;;;;;5468343;26;20009;-69
2024/04/13 01:40:17;;;;;;;1.77;0.43;;;15.00;92.30;;;;;;5500633;26;19997;-69
2024/04/13 01:42:45;;;;;;;3.10;0.47;;;14.90;92.40;;;;;;5506009;26;20324;-69
2024/04/13 01:45:11;;;;;;;2.63;0.60;;;14.90;92.40;;;;;;5480025;26;20030;-69
2024/04/13 01:47:38;;;;;;;2.50;0.57;;;15.00;92.50;;;;;;5500592;26;19997;-70
2024/04/13 01:50:04;;;;;;;4.18;0.70;;;15.00;92.50;;;;;;5507752;26;19997;-68
2024/04/13 01:52:30;;;;;;;1.60;0.30;;;15.00;92.50;;;;;;5474142;26;20507;-69
2024/04/13 01:55:04;;;;;;;8.95;0.90;;;15.00;92.60;;;;;;5490659;25;19993;-69
2024/04/13 01:57:30;;;;;;;3.40;0.50;;;15.00;92.50;;;;;;5480725;26;20354;-67
2024/04/13 01:59:55;;;;;;;2.80;0.60;;;15.00;92.50;;;;;;5492064;26;19998;-69
2024/04/13 02:02:21;;;;;;;2.55;0.50;;;15.00;92.60;;;;;;5478754;26;20006;-69
2024/04/13 02:04:47;;;;;;;4.03;0.68;;;15.00;92.30;;;;;;5483802;26;20439;-69
2024/04/13 02:07:13;;;;;;;3.22;0.60;;;14.90;92.50;;;;;;5471530;26;19998;-68
2024/04/13 02:09:39;;;;;;;4.57;0.68;;;14.80;92.60;;;;;;5483499;26;20039;-70
2024/04/13 02:12:11;;;;;;;2.25;0.50;;;14.80;92.60;;;;;;5434676;26;20123;-70
2024/04/13 02:14:36;;;;;;;3.90;0.60;;;14.80;92.60;;;;;;5498058;25;19993;-70
2024/04/13 02:17:02;;;;;;;4.10;0.60;;;14.80;92.60;;;;;;5475169;26;20332;-69
2024/04/13 02:19:28;;;;;;;2.85;0.50;;;14.80;92.80;;;;;;5504921;26;20002;-70
2024/04/13 02:21:53;;;;;;;3.85;0.60;;;14.80;92.80;;;;;;5476125;26;20076;-69
2024/04/13 02:24:20;;;;;;;2.72;0.60;;;14.70;92.70;;;;;;5514749;26;19997;-69
2024/04/13 02:26:52;;;;;;;5.05;0.55;;;14.70;92.70;;;;;;5515761;26;19997;-70
2024/04/13 02:29:17;;;;;;;1.83;0.40;;;14.70;92.70;;;;;;5500343;25;20010;-68
2024/04/13 02:31:43;;;;;;;3.33;0.43;;;14.70;92.80;;;;;;5473276;26;20002;-69
2024/04/13 02:34:08;;;;;;;3.42;0.60;;;14.70;92.80;;;;;;5473104;26;20002;-68
2024/04/13 02:36:34;;;;;;;2.22;0.38;;;14.70;92.90;;;;;;5447898;26;20006;-70
2024/04/13 02:39:00;;;;;;;2.28;0.45;;;14.80;92.90;;;;;;5485538;26;20005;-70
2024/04/13 02:41:27;;;;;;;3.92;0.38;;;14.80;93.00;;;;;;5514035;26;20029;-70
2024/04/13 02:43:53;;;;;;;3.55;0.60;;;14.80;93.00;;;;;;5504335;26;20009;-69
2024/04/13 02:46:21;;;;;;;1.83;0.40;;;14.80;93.00;;;;;;5511387;26;19997;-69
2024/04/13 02:48:47;;;;;;;1.80;0.50;;;14.80;92.90;;;;;;5467168;26;19995;-70
2024/04/13 02:51:15;;;;;;;2.40;0.43;;;14.80;92.90;;;;;;5497487;26;20002;-69
2024/04/13 02:53:41;;;;;;;3.13;0.40;;;14.70;93.00;;;;;;5490642;26;20075;-69
2024/04/13 02:56:07;;;;;;;2.95;0.43;;;14.70;93.00;;;;;;5478802;26;20005;-70
2024/04/13 02:58:33;;;;;;;2.42;0.50;;;14.70;93.00;;;;;;5464207;26;20008;-69
2024/04/13 03:01:00;;;;;;;5.93;0.60;;;14.70;93.10;;;;;;5487242;25;19997;-70
2024/04/13 03:03:26;;;;;;;2.40;0.52;;;14.60;93.00;;;;;;5464421;26;20009;-69
2024/04/13 03:06:03;;;;;;;2.92;0.50;;;14.60;93.20;;;;;;5478146;26;20227;-70
2024/04/13 03:08:30;;;;;;;2.60;0.40;;;14.60;93.30;;;;;;5476031;25;20013;-70
2024/04/13 03:10:57;;;;;;;3.08;0.60;;;14.60;93.30;;;;;;5509947;25;20332;-70
2024/04/13 03:13:23;;;;;;;2.35;0.40;;;14.60;93.30;;;;;;5489586;26;20021;-68
2024/04/13 03:15:58;;;;;;;2.60;0.40;;;14.60;93.20;;;;;;5504281;26;19997;-70
2024/04/13 03:18:25;;;;;;;4.28;0.50;;;14.60;93.20;;;;;;5488993;25;20008;-69
2024/04/13 03:20:51;;;;;;;2.75;0.43;;;14.60;93.30;;;;;;5497505;26;20001;-69
2024/04/13 03:23:24;;;;;;;3.15;0.63;;;14.60;93.30;;;;;;5458041;26;20034;-69
2024/04/13 03:25:51;;;;;;;2.15;0.50;;;14.60;93.30;;;;;;5483317;25;19998;-70
2024/04/13 03:28:30;;;;;;;2.38;0.40;;;14.60;93.30;;;;;;5501274;25;19998;-69
2024/04/13 03:30:56;;;;;;;1.83;0.40;;;14.60;93.20;;;;;;5513409;26;20001;-70
2024/04/13 03:33:25;;;;;;;2.10;0.40;;;14.60;93.30;;;;;;5457064;25;19994;-70
2024/04/13 03:35:51;;;;;;;3.05;0.60;;;14.60;93.30;;;;;;5464234;26;19998;-70
2024/04/13 03:38:17;;;;;;;2.33;0.50;;;14.60;93.20;;;;;;5442514;26;20005;-69
2024/04/13 03:40:46;;;;;;;3.72;0.60;;;14.50;93.20;;;;;;5499052;26;19998;-70
2024/04/13 03:43:14;;;;;;;2.70;0.50;;;14.50;93.20;;;;;;5517137;26;20012;-69
2024/04/13 03:45:42;;;;;;;;;;;14.50;93.30;;;;;;5483536;26;20002;-69
2024/04/13 03:48:08;;;;;;;1.58;0.35;;;14.50;93.30;;;;;;5430027;26;19924;-68
2024/04/13 03:50:40;;;;;;;1.85;0.50;;;14.50;93.30;;;;;;5468405;26;19999;-69
2024/04/13 03:53:05;;;;;;;6.18;0.70;;;14.50;93.20;;;;;;5486625;26;19997;-70
2024/04/13 03:55:31;;;;;;;3.30;0.50;;;14.40;93.50;;;;;;5471584;26;20047;-70
2024/04/13 03:57:57;;;;;;;4.28;0.85;;;14.40;93.30;;;;;;5482293;26;20519;-70
2024/04/13 04:00:30;;;;;;;5.93;0.90;;;14.40;93.30;;;;;;5502897;26;20001;-68
2024/04/13 04:02:56;;;;;;;2.80;0.50;;;14.30;93.40;;;;;;5482738;26;20070;-70
2024/04/13 04:05:22;;;;;;;4.97;0.60;;;14.40;93.40;;;;;;5510893;25;20317;-69
2024/04/13 04:07:47;;;;;;;1.88;0.50;;;14.30;93.30;;;;;;5464141;26;20441;-69
2024/04/13 04:10:13;;;;;;;5.65;0.80;;;14.30;93.40;;;;;;5470444;26;20056;-70
2024/04/13 04:12:39;;;;;;;3.17;0.60;;;14.30;93.30;;;;;;5484890;26;19997;-69
2024/04/13 04:15:06;;;;;;;2.85;0.63;;;14.30;93.30;;;;;;5485998;25;19994;-69
2024/04/13 04:17:31;;;;;;;2.95;0.50;;;14.40;93.30;;;;;;5489382;26;19997;-70
2024/04/13 04:19:57;;;;;;;3.40;0.43;;;14.40;93.30;;;;;;5508298;25;20074;-70
2024/04/13 04:22:22;;;;;;;4.35;0.65;;;14.40;93.20;;;;;;5471940;26;20013;-68
2024/04/13 04:24:50;;;;;;;2.65;0.55;;;14.40;93.20;;;;;;5468598;25;20005;-69
2024/04/13 04:27:18;;;;;;;2.92;0.60;;;14.40;93.20;;;;;;5462496;26;20372;-69
2024/04/13 04:29:43;;;;;;;2.38;0.57;;;14.40;93.20;;;;;;5443866;26;20016;-69
2024/04/13 04:32:10;;;;;;;6.07;0.70;;;14.40;93.10;;;;;;5515788;26;19994;-69
2024/04/13 04:34:35;;;;;;;2.90;0.60;;;14.40;93.30;;;;;;5508536;25;19989;-69
2024/04/13 04:37:01;;;;;;;4.32;0.50;;;14.40;93.20;;;;;;5481720;26;20514;-70
2024/04/13 04:39:28;;;;;;;3.08;0.43;;;14.30;93.30;;;;;;5475027;26;20012;-70
2024/04/13 04:41:54;;;;;;;3.45;0.40;;;14.30;93.50;;;;;;5475310;26;20043;-70
2024/04/13 04:44:20;;;;;;;2.70;0.50;;;14.30;93.60;;;;;;5492202;26;19994;-69
2024/04/13 04:46:45;;;;;;;2.90;0.57;;;14.30;93.50;;;;;;5506072;26;20025;-69
2024/04/13 04:49:11;;;;;;;5.05;0.68;;;14.20;93.50;;;;;;5486094;25;20005;-69
2024/04/13 04:51:36;;;;;;;3.10;0.60;;;14.10;93.70;;;;;;5499312;25;19997;-69
2024/04/13 04:54:02;;;;;;;3.40;0.55;;;14.20;93.80;;;;;;5496421;26;20456;-70
2024/04/13 04:56:27;;;;;;;3.28;0.50;;;14.20;93.80;;;;;;5518245;26;20010;-70
2024/04/13 04:58:56;;;;;;;2.03;0.50;;;14.30;93.70;;;;;;5519027;26;19998;-70
2024/04/13 05:01:28;;;;;;;2.97;0.60;;;14.30;93.60;;;;;;5500815;26;20025;-70
2024/04/13 05:03:54;;;;;;;2.65;0.45;;;14.40;93.50;;;;;;5463064;26;19998;-70
2024/04/13 05:06:19;;;;;;;2.25;0.50;;;14.40;93.50;;;;;;5481178;26;20005;-69
2024/04/13 05:08:47;;;;;;;2.67;0.50;;;14.40;93.40;;;;;;5478165;26;19990;-70
2024/04/13 05:11:14;;;;;;;3.08;0.60;;;14.30;93.30;;;;;;5516853;26;20001;-70
2024/04/13 05:13:40;;;;;;;4.03;0.60;;;14.30;93.40;;;;;;5514660;26;20005;-69
2024/04/13 05:16:09;;;;;;;2.67;0.50;;;14.40;93.40;;;;;;5464400;26;20459;-69
2024/04/13 05:18:38;;;;;;;2.72;0.57;;;14.40;93.30;;;;;;5487568;26;20009;-70
2024/04/13 05:21:04;;;;;;;3.05;0.40;;;14.40;93.40;;;;;;5459016;26;19999;-69
2024/04/13 05:23:30;;;;;;;2.83;0.60;;;14.40;93.50;;;;;;5468537;26;19998;-70
2024/04/13 05:25:55;;;;;;;3.00;0.60;;;14.40;93.50;;;;;;5490875;26;20438;-68
2024/04/13 05:28:22;;;;;;;5.63;0.65;;;14.40;93.70;;;;;;5500396;26;20416;-70
2024/04/13 05:30:56;;;;;;;3.67;0.70;;;14.50;93.80;;;;;;5505552;26;19998;-70
2024/04/13 05:33:26;;;;;;;1.45;0.40;;;14.50;93.70;;;;;;5514620;26;20343;-70
2024/04/13 05:35:53;;;;;;;4.10;0.50;;;14.50;93.90;;;;;;5482993;26;20460;-70
2024/04/13 05:38:18;;;;;;;3.53;0.50;;;14.60;94.00;;;;;;5466426;26;20026;-70
2024/04/13 05:40:52;;;;;;;2.55;0.60;;;14.60;94.00;;;;;;5504658;26;20001;-70
2024/04/13 05:43:19;;;;;;;2.28;0.47;;;14.70;94.10;;;;;;5495062;25;20026;-71
2024/04/13 05:45:45;;;;;;;3.25;0.50;;;14.70;94.10;;;;;;5488471;26;20004;-70
2024/04/13 05:48:11;;;;;;;3.67;0.35;;;14.80;94.10;;;;;;5507355;26;20013;-70
2024/04/13 05:50:36;;;;;;;9.55;0.82;;;14.80;94.10;;;;;;5494306;26;20039;-71
2024/04/13 05:53:02;;;;;;;4.18;0.60;;;14.90;94.10;;;;;;5459346;26;19994;-71
2024/04/13 05:55:28;;;;;;;3.42;0.52;;;14.90;94.00;;;;;;5469295;26;19994;-70
2024/04/13 05:57:53;;;;;;;2.63;0.60;;;15.00;94.00;;;;;;5520758;26;20489;-70
2024/04/13 06:00:19;;;;;;;4.25;0.60;;;15.00;94.00;;;;;;5505740;25;19997;-69
2024/04/13 06:02:45;;;;;;;4.15;0.65;;;15.10;94.00;;;;;;5493594;25;20429;-70
2024/04/13 06:05:11;;;;;;;5.03;0.70;;;15.20;93.90;;;;;;5480308;26;20038;-69
2024/04/13 06:07:37;;;;;;;3.28;0.60;;;15.30;93.80;;;;;;5469924;26;20008;-69
2024/04/13 06:10:05;;;;;;;2.15;0.50;;;15.30;93.80;;;;;;5482389;26;20011;-68
2024/04/13 06:12:30;;;;;;;2.83;0.50;;;15.40;93.80;;;;;;5471252;26;20006;-70
2024/04/13 06:14:56;;;;;;;2.08;0.50;;;15.50;93.90;;;;;;5490025;25;20091;-70
2024/04/13 06:17:21;;;;;;;2.60;0.50;;;15.50;93.90;;;;;;5488876;26;20013;-69
2024/04/13 06:19:47;;;;;;;2.42;0.50;;;15.60;93.70;;;;;;5470845;26;20002;-69
2024/04/13 06:22:12;;;;;;;3.92;0.50;;;15.70;93.70;;;;;;5468378;26;20012;-71
2024/04/13 06:24:38;;;;;;;3.30;0.43;;;15.80;93.70;;;;;;5471301;26;20449;-70
2024/04/13 06:27:10;;;;;;;3.10;0.55;;;15.80;93.30;;;;;;5511593;25;20011;-67
2024/04/13 06:29:36;;;;;;;2.58;0.50;;;15.80;93.20;;;;;;5496399;25;19998;-69
2024/04/13 06:32:03;;;;;;;2.65;0.43;;;15.90;93.20;;;;;;5429725;26;20400;-70
2024/04/13 06:34:28;;;;;;;2.28;0.52;;;15.90;93.20;;;;;;5463507;26;20022;-69
2024/04/13 06:36:54;;;;;;;3.13;0.60;;;16.00;93.20;;;;;;5485547;26;19994;-69
2024/04/13 06:39:19;;;;;;;2.35;0.50;;;16.10;92.90;;;;;;5485453;25;20005;-69
2024/04/13 06:41:45;;;;;;;2.45;0.50;;;16.10;92.60;;;;;;5497044;26;20012;-70
2024/04/13 06:44:11;;;;;;;3.15;0.50;;;16.20;92.60;;;;;;5507122;26;19998;-70
2024/04/13 06:46:37;;;;;;;4.00;0.60;;;16.20;92.60;;;;;;5505764;25;20034;-69
2024/04/13 06:49:04;;;;;;;2.53;0.60;;;16.30;92.60;;;;;;5478796;25;19998;-69
2024/04/13 06:51:29;;;;;;;2.53;0.47;;;16.40;92.50;;;;;;5468998;26;20009;-67
2024/04/13 06:53:55;;;;;;;7.15;0.60;;;16.50;92.30;;;;;;5500225;26;20021;-69
2024/04/13 06:56:20;;;;;;;2.83;0.50;;;16.50;92.10;;;;;;5504688;26;20110;-69
2024/04/13 06:58:52;;;;;;;2.92;0.50;;;16.60;92.10;;;;;;5482019;26;20675;-70
2024/04/13 07:01:17;;;;;;;3.25;0.57;;;16.60;91.90;;;;;;5466778;26;20013;-69
2024/04/13 07:03:43;;;;;;;2.67;0.55;;;16.60;92.10;;;;;;5473302;26;19998;-69
2024/04/13 07:06:09;;;;;;;4.03;0.60;;;16.70;92.30;;;;;;5482901;26;20013;-69
2024/04/13 07:08:35;;;;;;;2.58;0.50;;;16.80;91.80;;;;;;5508666;26;19997;-68
2024/04/13 07:11:01;;;;;;;3.17;0.68;;;16.80;92.00;;;;;;5485742;26;20017;-69
2024/04/13 07:13:27;;;;;;;5.15;0.50;;;16.90;91.70;;;;;;5483452;26;20456;-69
2024/04/13 07:15:53;;;;;;;3.30;0.60;;;17.00;91.70;;;;;;5500264;25;20001;-68
2024/04/13 07:18:18;;;;;;;4.82;0.70;;;17.20;91.20;;;;;;5506646;26;20470;-69
2024/04/13 07:20:45;;;;;;;5.13;0.60;;;17.30;91.20;;;;;;5476419;26;19997;-70
2024/04/13 07:23:11;;;;;;;3.63;0.50;;;17.30;90.90;;;;;;5470841;26;20046;-69
2024/04/13 07:25:36;;;;;;;2.95;0.47;;;17.40;91.00;;;;;;5459640;26;20014;-70
2024/04/13 07:28:02;;;;;;;3.30;0.70;;;17.40;90.70;;;;;;5499877;26;20500;-70
2024/04/13 07:30:28;;;;;;;2.75;0.60;;;17.40;91.30;;;;;;5481316;26;20017;-70
2024/04/13 07:32:53;;;;;;;2.33;0.50;;;17.40;91.30;;;;;;5508572;25;20066;-69
2024/04/13 07:35:19;;;;;;;3.35;0.60;;;17.40;91.40;;;;;;5506110;25;20455;-69
2024/04/13 07:37:45;;;;;;;2.65;0.45;;;17.50;91.50;;;;;;5498640;26;20001;-70
2024/04/13 07:40:10;;;;;;;3.67;0.75;;;17.50;91.10;;;;;;5486999;26;20002;-70
2024/04/13 07:42:36;;;;;;;2.25;0.40;;;17.60;90.80;;;;;;5497006;26;20005;-71
2024/04/13 07:45:02;;;;;;;3.05;0.55;;;17.60;90.60;;;;;;5510882;26;20471;-72
2024/04/13 07:47:27;;;;;;;2.53;0.55;;;17.60;90.80;;;;;;5505270;25;20013;-70
2024/04/13 07:49:53;;;;;;;2.90;0.50;;;17.60;90.90;;;;;;5485175;26;20003;-70
2024/04/13 07:52:18;;;;;;;4.82;0.57;;;17.80;91.20;;;;;;5497867;25;20852;-68
2024/04/13 07:54:52;;;;;;;2.28;0.50;;;17.90;90.70;;;;;;5430461;26;20329;-68
2024/04/13 07:57:17;;;;;;;2.45;0.50;;;17.90;90.60;;;;;;5484135;26;20054;-70
2024/04/13 07:59:43;;;;;;;1.88;0.60;;;18.00;90.50;;;;;;5499077;26;19998;-69
2024/04/13 08:02:08;;;;;;;3.35;0.60;;;18.10;90.50;;;;;;5466761;26;19997;-69
2024/04/13 08:04:34;;;;;;;4.28;0.60;;;18.10;90.40;;;;;;5494835;26;20013;-69
2024/04/13 08:07:00;;;;;;;4.00;0.60;;;18.20;90.20;;;;;;5487715;26;20013;-67
2024/04/13 08:09:26;;;;;;;3.60;0.55;;;18.20;90.20;;;;;;5503916;26;20008;-69
2024/04/13 08:11:51;;;;;;;4.55;0.70;;;18.20;90.00;;;;;;5485304;26;19994;-67
2024/04/13 08:14:17;;;;;;;2.30;0.45;;;18.10;90.10;;;;;;5490464;25;20010;-67
2024/04/13 08:16:44;;;;;;;2.33;0.50;;;18.10;90.30;;;;;;5500902;26;20013;-69
2024/04/13 08:19:17;;;;;;;;;;;18.10;90.20;;;;;;5473476;26;20010;-68
2024/04/13 08:21:42;;;;;;;2.65;0.55;;;18.00;90.20;;;;;;5464987;26;20014;-69
2024/04/13 08:24:09;;;;;;;5.93;0.70;;;18.00;90.60;;;;;;5471275;25;20002;-68
2024/04/13 08:26:34;;;;;;;3.28;0.52;;;18.10;90.30;;;;;;5465400;26;20637;-69
2024/04/13 08:29:00;;;;;;;3.10;0.55;;;18.10;90.30;;;;;;5491117;26;20074;-68
2024/04/13 08:31:25;;;;;;;4.93;0.68;;;18.20;90.10;;;;;;5444264;26;20135;-68
2024/04/13 08:33:51;;;;;;;4.15;0.70;;;18.20;90.20;;;;;;5467847;26;20013;-68
2024/04/13 08:36:16;;;;;;;4.10;0.70;;;18.20;90.20;;;;;;5484047;26;20366;-68
2024/04/13 08:38:44;;;;;;;2.78;0.60;;;18.30;90.40;;;;;;5487672;26;20073;-69
2024/04/13 08:41:17;;;;;;;2.38;0.57;;;18.50;90.50;;;;;;5497134;26;20017;-69
2024/04/13 08:43:43;;;;;;;1.92;0.50;;;18.60;90.30;;;;;;5478686;26;19994;-68
2024/04/13 08:46:09;;;;;;;3.63;0.60;;;18.70;89.30;;;;;;5486941;26;20017;-68
2024/04/13 08:48:37;;;;;;;2.58;0.50;;;18.70;89.00;;;;;;5490518;26;20401;-68
2024/04/13 08:51:07;;;;;;;3.03;0.60;;;18.70;88.90;;;;;;5464597;26;20346;-67
2024/04/13 08:53:34;;;;;;;3.28;0.50;;;18.70;89.50;;;;;;5489453;26;20000;-69
2024/04/13 08:56:02;;;;;;;4.13;0.55;;;18.80;89.80;;;;;;5494150;26;20005;-68
2024/04/13 08:58:28;;;;;;;1.70;0.60;;;19.00;89.20;;;;;;5440318;26;20867;-68
2024/04/13 09:00:59;;;;;;;2.15;0.50;;;19.00;88.50;;;;;;5459156;26;20173;-68
2024/04/13 09:03:27;;;;;;;3.42;0.70;;;19.00;88.10;;;;;;5468372;26;20014;-68
2024/04/13 09:05:53;;;;;;;2.60;0.50;;;18.90;88.30;;;;;;5473013;26;19998;-70
2024/04/13 09:08:26;;;;;;;4.55;0.75;;;19.00;88.20;;;;;;5492240;25;20029;-70
2024/04/13 09:10:54;;;;;;;4.93;0.60;;;19.10;88.10;;;;;;5498660;26;20457;-69
2024/04/13 09:13:20;;;;;;;2.67;0.60;;;19.20;88.10;;;;;;5485734;26;20072;-70
2024/04/13 09:15:46;;;;;;;3.88;0.55;;;19.30;87.90;;;;;;5499154;26;20001;-67
2024/04/13 09:18:12;;;;;;;4.20;0.80;;;19.50;87.60;;;;;;5501196;26;20009;-69
2024/04/13 09:20:38;;;;;;;3.60;0.60;;;19.60;87.50;;;;;;5484862;26;20016;-69
2024/04/13 09:23:05;;;;;;;4.65;0.70;;;19.60;86.20;;;;;;5499015;26;20063;-65
2024/04/13 09:25:31;;;;;;;3.15;0.75;;;19.60;87.00;;;;;;5489184;25;20001;-69
2024/04/13 09:28:12;;;;;;;3.40;0.70;;;19.60;87.00;;;;;;5477883;26;20034;-67
2024/04/13 09:30:39;;;;;;;3.70;0.55;;;19.70;86.70;;;;;;5477797;26;20062;-69
2024/04/13 09:33:06;;;;;;;3.25;0.60;;;19.80;86.60;;;;;;5432538;26;19997;-69
2024/04/13 09:35:33;;;;;;;2.15;0.50;;;19.90;86.10;;;;;;5448790;26;20002;-68
2024/04/13 09:37:59;;;;;;;2.42;0.63;;;19.90;85.70;;;;;;5445190;26;19994;-69
2024/04/13 09:40:25;;;;;;;6.13;0.60;;;19.90;85.90;;;;;;5484060;26;20005;-69
2024/04/13 09:42:51;;;;;;;1.92;0.47;;;20.00;85.70;;;;;;5462047;26;20005;-68
2024/04/13 09:45:18;;;;;;;3.92;0.63;;;20.10;86.00;;;;;;5457425;26;20460;-71
2024/04/13 09:47:47;;;;;;;4.28;0.52;;;20.20;86.50;;;;;;5436011;26;20051;-69
2024/04/13 09:50:19;;;;;;;4.28;0.70;;;20.40;86.40;;;;;;5484921;26;20016;-70
2024/04/13 09:52:45;;;;;;;4.20;0.60;;;20.50;84.80;;;;;;5442774;26;19997;-70
2024/04/13 09:55:12;;;;;;;3.42;0.57;;;20.60;84.60;;;;;;5492926;26;20022;-71
2024/04/13 09:57:38;;;;;;;3.92;0.60;;;20.60;84.20;;;;;;5448501;26;20050;-70
2024/04/13 10:00:07;;;;;;;1.85;0.60;;;20.70;85.40;;;;;;5434788;26;20344;-70
2024/04/13 10:02:33;;;;;;;2.05;0.60;;;20.80;84.80;;;;;;5488573;25;19993;-69
2024/04/13 10:05:05;;;;;;;3.88;0.70;;;20.80;84.00;;;;;;5488356;26;20009;-70
2024/04/13 10:07:33;;;;;;;2.60;0.60;;;20.80;84.90;;;;;;5496383;26;19997;-71
2024/04/13 10:10:03;;;;;;;1.42;0.45;;;20.90;83.40;;;;;;5497942;26;19998;-71
2024/04/13 10:12:32;;;;;;;2.85;0.60;;;20.90;84.30;;;;;;5462859;25;20068;-71
2024/04/13 10:14:59;;;;;;;4.30;0.55;;;21.00;83.20;;;;;;5455875;26;20071;-71
2024/04/13 10:17:26;;;;;;;12.18;1.00;;;21.10;83.70;;;;;;5501582;25;20005;-71
2024/04/13 10:19:52;;;;;;;4.18;0.70;;;21.20;84.10;;;;;;5491732;26;19997;-71
2024/04/13 10:22:19;;;;;;;7.45;0.80;;;21.30;83.60;;;;;;5474222;26;19998;-71
2024/04/13 10:24:45;;;;;;;6.72;0.57;;;21.50;83.20;;;;;;5484477;26;20474;-69
2024/04/13 10:27:12;;;;;;;6.05;0.88;;;21.60;82.90;;;;;;5478315;26;19998;-71
2024/04/13 10:29:44;;;;;;;3.47;0.60;;;21.60;81.30;;;;;;5493177;26;20011;-70
2024/04/13 10:32:16;;;;;;;3.88;0.60;;;21.50;81.60;;;;;;5441655;26;20003;-69
2024/04/13 10:34:42;;;;;;;2.25;0.63;;;21.50;83.20;;;;;;5479022;26;20001;-71
2024/04/13 10:37:32;;;;;;;4.18;0.55;;;21.60;81.60;;;;;;5471636;26;20437;-67
2024/04/13 10:40:02;;;;;;;9.38;0.98;;;21.60;81.40;;;;;;5497163;25;19989;-70
2024/04/13 10:42:42;;;;;;;2.85;0.60;;;21.60;81.40;;;;;;5498456;25;20009;-69
2024/04/13 10:45:18;;;;;;;4.18;0.60;;;21.70;82.40;;;;;;5443400;26;19998;-71
2024/04/13 10:47:44;;;;;;;4.65;0.80;;;21.90;82.00;;;;;;5496047;26;20523;-70
2024/04/13 10:50:14;;;;;;;7.65;0.80;;;21.90;79.90;;;;;;5450111;26;19995;-71
2024/04/13 10:52:41;;;;;;;7.63;0.90;;;21.90;80.60;;;;;;5466483;25;20475;-66
2024/04/13 10:55:10;;;;;;;4.70;0.60;;;21.90;80.10;;;;;;5497304;26;20018;-66
2024/04/13 10:57:36;;;;;;;3.63;0.80;;;22.00;80.90;;;;;;5492345;26;20009;-65
2024/04/13 11:00:02;;;;;;;7.82;0.90;;;22.10;80.30;;;;;;5488004;26;20005;-66
2024/04/13 11:02:38;;;;;;;5.53;0.50;;;22.30;80.20;;;;;;5506470;26;20516;-66
2024/04/13 11:05:05;;;;;;;2.53;0.50;;;22.40;80.10;;;;;;5492638;25;20316;-64
2024/04/13 11:07:31;;;;;;;3.35;0.60;;;22.60;80.70;;;;;;5490466;25;20005;-65
2024/04/13 11:09:57;;;;;;;4.78;0.60;;;22.70;80.00;;;;;;5496938;25;20065;-66
2024/04/13 11:12:23;;;;;;;4.55;0.50;;;22.90;79.50;;;;;;5493902;26;20012;-66
2024/04/13 11:14:49;;;;;;;5.13;0.63;;;23.10;77.60;;;;;;5462083;26;20457;-67
2024/04/13 11:17:15;;;;;;;2.83;0.70;;;23.20;77.00;;;;;;5488779;26;20353;-66
2024/04/13 11:19:41;;;;;;;3.22;0.52;;;23.30;76.50;;;;;;5493413;26;20013;-66
2024/04/13 11:22:09;;;;;;;3.42;0.70;;;23.20;76.90;;;;;;5453165;26;20002;-66
2024/04/13 11:24:36;;;;;;;7.68;0.93;;;23.30;78.60;;;;;;5447641;26;20003;-67
2024/04/13 11:27:02;;;;;;;4.05;0.80;;;23.50;77.10;;;;;;5437057;26;20442;-66
2024/04/13 11:29:28;;;;;;;5.38;0.63;;;23.60;75.70;;;;;;5456809;26;20035;-66
2024/04/13 11:31:55;;;;;;;4.35;0.70;;;23.50;76.00;;;;;;5458342;25;20010;-67
2024/04/13 11:34:22;;;;;;;;;;;23.50;77.10;;;;;;5471037;26;20054;-66
2024/04/13 11:36:47;;;;;;;6.53;0.88;;;23.70;76.70;;;;;;5464779;26;19940;-66
2024/04/13 11:39:13;;;;;;;5.90;0.68;;;23.70;75.90;;;;;;5462373;26;20552;-66
2024/04/13 11:41:38;;;;;;;5.20;0.73;;;23.80;75.40;;;;;;5475449;26;20002;-65
2024/04/13 11:44:07;;;;;;;3.67;0.60;;;23.70;75.00;;;;;;5498609;25;20413;-66
2024/04/13 11:46:32;;;;;;;3.85;0.63;;;23.80;74.20;;;;;;5491239;25;20014;-66
2024/04/13 11:48:59;;;;;;;4.38;0.60;;;23.70;75.10;;;;;;5439197;26;20018;-66
2024/04/13 11:51:24;;;;;;;1.95;0.45;;;23.80;75.40;;;;;;5447612;26;20371;-65
2024/04/13 11:53:50;;;;;;;3.28;0.63;;;23.90;75.00;;;;;;5457728;26;20415;-65
2024/04/13 11:56:22;;;;;;;5.22;0.70;;;24.00;73.60;;;;;;5462055;26;20018;-64
2024/04/13 11:58:49;;;;;;;2.50;0.50;;;24.00;74.30;;;;;;5461303;26;20081;-65
2024/04/13 12:01:15;;;;;;;2.30;0.47;;;24.10;74.80;;;;;;5467168;26;20015;-64
2024/04/13 12:03:41;;;;;;;3.65;0.45;;;24.20;73.70;;;;;;5485866;26;20406;-66
2024/04/13 12:06:07;;;;;;;3.47;0.47;;;24.30;72.40;;;;;;5439062;26;20070;-65
2024/04/13 12:08:33;;;;;;;3.67;0.40;;;24.30;73.00;;;;;;5444125;26;20027;-66
2024/04/13 12:10:59;;;;;;;3.88;0.63;;;24.30;73.20;;;;;;5453264;26;20351;-65
2024/04/13 12:13:26;;;;;;;3.78;0.50;;;24.30;72.80;;;;;;5463126;26;20067;-65
2024/04/13 12:15:52;;;;;;;1.75;0.40;;;24.40;73.20;;;;;;5462889;26;20047;-65
2024/04/13 12:18:18;;;;;;;3.78;0.60;;;24.60;74.00;;;;;;5422882;26;20050;-65
2024/04/13 12:20:44;;;;;;;3.33;0.60;;;24.60;72.60;;;;;;5460194;26;19998;-65
2024/04/13 12:23:10;;;;;;;2.03;0.40;;;24.70;73.20;;;;;;5420780;26;20007;-65
2024/04/13 12:25:36;;;;;;;3.33;0.55;;;24.70;72.20;;;;;;5454145;26;20381;-65
2024/04/13 12:28:04;;;;;;;3.20;0.57;;;24.80;72.60;;;;;;5467394;26;20022;-65
2024/04/13 12:30:30;;;;;;;3.58;0.65;;;24.90;72.40;;;;;;5451385;26;20006;-65
2024/04/13 12:32:55;;;;;;;2.92;0.60;;;24.90;72.00;;;;;;5468117;26;20009;-65
2024/04/13 12:35:21;;;;;;;4.18;0.63;;;25.00;72.00;;;;;;5492794;26;20001;-67
2024/04/13 12:37:47;;;;;;;4.97;0.60;;;24.90;72.00;;;;;;5498824;26;20009;-65
2024/04/13 12:40:15;;;;;;;9.88;0.70;;;25.00;71.70;;;;;;5460557;25;20107;-65
2024/04/13 12:42:41;;;;;;;3.10;0.40;;;25.10;71.70;;;;;;5504739;26;20001;-64
2024/04/13 12:45:06;;;;;;;5.10;0.60;;;25.20;71.40;;;;;;5500230;25;20494;-65
2024/04/13 12:47:35;;;;;;;1.83;0.60;;;25.10;70.20;;;;;;5504721;26;19997;-64